Time;durP1;ratioP1;P1;durP2;ratioP2;P2;SDS_P1;SDS_P2;PMS_P1;PMS_P2;Temp;Humidity;BMP_temperature;BMP_pressure;BME280_temperature;BME280_humidity;BME280_pressure;Samples;Min_cycle;Max_cycle;Signal;HPM_P1;HPM_P2
2023/07/10 00:01:31;;;;;;;4.18;2.20;;;;;;;20.95;65.23;101764.69;3529943;40;20384;-63
2023/07/10 00:03:57;;;;;;;3.10;2.08;;;;;;;20.97;65.49;101768.16;3528965;40;20055;-63
2023/07/10 00:06:23;;;;;;;4.75;1.98;;;;;;;20.98;65.11;101774.47;3527136;40;20051;-63
2023/07/10 00:08:49;;;;;;;5.15;2.22;;;;;;;20.97;65.32;101779.09;3530188;40;20361;-63
2023/07/10 00:11:30;;;;;;;4.03;2.33;;;;;;;20.74;64.95;101736.56;3531389;40;20061;-63
2023/07/10 00:13:57;;;;;;;4.28;1.98;;;;;;;20.74;65.20;101733.81;3532039;40;20072;-64
2023/07/10 00:16:24;;;;;;;6.07;2.47;;;;;;;20.92;65.00;101775.88;3535814;40;20069;-64
2023/07/10 00:18:51;;;;;;;5.10;2.30;;;;;;;20.83;65.08;101771.25;3531121;40;20063;-64
2023/07/10 00:21:20;;;;;;;5.10;2.40;;;;;;;20.95;66.65;101786.53;3528105;40;20105;-63
2023/07/10 00:23:47;;;;;;;4.25;2.42;;;;;;;20.93;67.52;101788.56;3529746;40;20120;-63
2023/07/10 00:26:23;;;;;;;4.60;2.47;;;;;;;20.85;68.54;101786.50;3529325;40;20061;-63
2023/07/10 00:28:53;;;;;;;3.55;2.45;;;;;;;20.71;69.34;101766.88;3531124;40;20078;-63
2023/07/10 00:31:20;;;;;;;3.58;2.38;;;;;;;20.70;70.85;101768.75;3528969;40;20089;-62
2023/07/10 00:33:47;;;;;;;5.15;2.53;;;;;;;20.59;70.54;101758.81;3534921;40;20053;-63
2023/07/10 00:36:30;;;;;;;5.18;2.58;;;;;;;20.52;70.67;101757.63;3532582;40;20122;-64
2023/07/10 00:39:18;;;;;;;7.30;2.53;;;;;;;20.47;71.85;101759.88;3531223;40;20066;-64
2023/07/10 00:41:52;;;;;;;3.95;2.35;;;;;;;20.41;71.86;101765.88;3535928;40;20066;-64
2023/07/10 00:44:23;;;;;;;3.75;2.33;;;;;;;20.40;71.49;101769.63;3534966;40;20377;-64
2023/07/10 00:46:59;;;;;;;3.97;2.28;;;;;;;20.38;71.46;101783.38;3530525;40;20055;-64
2023/07/10 00:49:55;;;;;;;3.05;2.38;;;;;;;20.33;70.98;101777.47;3531838;40;21113;-64
2023/07/10 00:52:32;;;;;;;6.40;2.47;;;;;;;20.34;71.40;101778.34;3529730;40;20073;-64
2023/07/10 00:55:00;;;;;;;5.55;2.33;;;;;;;20.33;71.21;101776.59;3535364;40;20050;-64
2023/07/10 00:57:35;;;;;;;4.68;2.05;;;;;;;20.32;71.78;101772.13;3532671;40;20064;-63
2023/07/10 01:00:17;;;;;;;5.85;2.20;;;;;;;20.31;71.95;101770.41;3532846;40;20046;-64
2023/07/10 01:02:43;;;;;;;4.10;2.00;;;;;;;20.31;70.91;101775.88;3534480;40;20395;-64
2023/07/10 01:05:10;;;;;;;5.20;2.10;;;;;;;20.28;70.35;101773.41;3532418;40;20278;-63
2023/07/10 01:07:44;;;;;;;2.92;1.95;;;;;;;20.27;70.31;101774.44;3535279;40;20046;-64
2023/07/10 01:10:10;;;;;;;4.80;2.40;;;;;;;20.25;70.59;101770.97;3530794;40;20057;-64
2023/07/10 01:12:40;;;;;;;5.03;2.65;;;;;;;20.24;70.20;101769.25;3532094;40;20483;-63
2023/07/10 01:15:07;;;;;;;5.25;2.33;;;;;;;20.26;70.48;101767.22;3532776;40;20046;-64
2023/07/10 01:17:34;;;;;;;4.00;2.30;;;;;;;20.21;70.74;101764.03;3533110;40;22085;-63
2023/07/10 01:20:25;;;;;;;6.40;2.30;;;;;;;20.25;69.97;101776.41;3529392;40;20066;-64
2023/07/10 01:22:51;;;;;;;4.50;2.42;;;;;;;20.25;70.42;101777.28;3533934;40;20125;-64
2023/07/10 01:25:16;;;;;;;5.30;2.40;;;;;;;20.23;70.52;101771.06;3525686;40;20057;-64
2023/07/10 01:27:42;;;;;;;7.07;2.72;;;;;;;20.26;70.05;101772.69;3530442;40;20058;-65
2023/07/10 01:30:28;;;;;;;4.00;2.15;;;;;;;20.16;69.85;101754.38;3519845;40;20073;-66
2023/07/10 01:32:57;;;;;;;3.20;2.03;;;;;;;20.22;69.82;101768.50;3535357;40;20484;-63
2023/07/10 01:35:29;;;;;;;6.50;2.45;;;;;;;20.18;70.22;101757.84;3533075;40;20070;-64
2023/07/10 01:37:55;;;;;;;3.65;2.17;;;;;;;20.20;70.18;101756.84;3530881;40;20063;-63
2023/07/10 01:40:35;;;;;;;6.13;2.50;;;;;;;20.16;69.50;101756.25;3530753;40;20104;-63
2023/07/10 01:43:01;;;;;;;4.43;2.28;;;;;;;20.17;70.55;101755.22;3533579;40;20058;-63
2023/07/10 01:45:28;;;;;;;2.15;1.90;;;;;;;20.00;69.50;101737.59;3530788;40;20074;-63
2023/07/10 01:47:56;;;;;;;4.30;2.35;;;;;;;20.17;70.41;101782.53;3533439;40;20049;-64
2023/07/10 01:50:22;;;;;;;5.85;2.40;;;;;;;20.13;70.07;101779.22;3533035;40;20321;-63
2023/07/10 01:52:48;;;;;;;4.63;2.30;;;;;;;20.12;70.21;101774.75;3533937;40;20378;-63
2023/07/10 01:55:19;;;;;;;4.05;2.53;;;;;;;20.12;69.87;101782.09;3534200;40;20057;-63
2023/07/10 01:57:45;;;;;;;3.95;2.35;;;;;;;20.09;70.37;101777.75;3533841;40;20299;-64
2023/07/10 02:00:12;;;;;;;3.90;2.35;;;;;;;20.08;70.67;101773.31;3530635;40;20058;-63
2023/07/10 02:02:38;;;;;;;4.45;2.33;;;;;;;20.04;70.96;101769.09;3533337;40;20687;-63
2023/07/10 02:05:04;;;;;;;4.65;2.20;;;;;;;20.01;71.64;101772.09;3534695;40;20066;-63
2023/07/10 02:07:29;;;;;;;4.28;2.20;;;;;;;19.94;71.14;101763.56;3529523;40;20157;-63
2023/07/10 02:09:55;;;;;;;6.65;2.78;;;;;;;19.90;71.42;101774.91;3533635;40;20440;-62
2023/07/10 02:12:21;;;;;;;4.75;2.47;;;;;;;19.86;71.34;101757.06;3532940;40;20062;-64
2023/07/10 02:14:46;;;;;;;4.63;2.30;;;;;;;19.87;71.08;101777.88;3534089;40;20113;-64
2023/07/10 02:17:12;;;;;;;20.08;2.78;;;;;;;19.85;72.07;101785.31;3529371;40;20058;-64
2023/07/10 02:19:37;;;;;;;3.35;2.20;;;;;;;19.83;72.01;101781.88;3532607;40;20717;-63
2023/07/10 02:22:03;;;;;;;2.78;2.13;;;;;;;19.70;72.72;101768.44;3530490;40;20055;-64
2023/07/10 02:24:29;;;;;;;4.55;2.33;;;;;;;19.69;73.46;101783.94;3533997;40;20081;-63
2023/07/10 02:26:54;;;;;;;6.40;2.53;;;;;;;19.69;73.96;101797.56;3529418;40;20085;-64
2023/07/10 02:29:20;;;;;;;3.60;2.20;;;;;;;19.66;74.35;101807.84;3529282;40;20408;-63
2023/07/10 02:31:50;;;;;;;4.70;2.35;;;;;;;19.66;74.59;101808.75;3532072;40;20393;-64
2023/07/10 02:34:16;;;;;;;6.45;3.40;;;;;;;19.50;74.97;101786.44;3532680;40;20054;-63
2023/07/10 02:36:41;;;;;;;4.18;3.00;;;;;;;19.60;75.03;101795.59;3534665;40;20472;-64
2023/07/10 02:39:07;;;;;;;6.05;3.70;;;;;;;19.63;75.83;101797.16;3531891;40;20050;-63
2023/07/10 02:41:33;;;;;;;6.82;4.15;;;;;;;19.59;76.59;101799.28;3531735;40;20062;-64
2023/07/10 02:43:58;;;;;;;6.07;3.80;;;;;;;19.61;76.88;101800.03;3533318;40;20068;-64
2023/07/10 02:46:24;;;;;;;6.78;4.65;;;;;;;19.56;77.15;101796.81;3532386;40;20074;-63
2023/07/10 02:48:49;;;;;;;11.65;5.63;;;;;;;19.50;77.69;101789.16;3533175;40;20390;-64
2023/07/10 02:51:15;;;;;;;8.23;5.22;;;;;;;19.52;78.09;101797.22;3530048;40;20073;-63
2023/07/10 02:53:42;;;;;;;9.45;5.50;;;;;;;19.46;78.56;101788.56;3530818;40;20066;-64
2023/07/10 02:56:07;;;;;;;7.40;5.70;;;;;;;19.38;78.93;101784.75;3531806;40;20271;-63
2023/07/10 02:58:33;;;;;;;7.53;5.63;;;;;;;19.29;79.50;101774.63;3530459;40;20093;-63
2023/07/10 03:01:01;;;;;;;8.43;6.38;;;;;;;19.43;79.31;101817.94;3530081;40;20069;-64
2023/07/10 03:03:28;;;;;;;9.10;6.70;;;;;;;19.39;80.17;101817.34;3530874;40;20069;-64
2023/07/10 03:06:01;;;;;;;9.55;6.25;;;;;;;19.35;80.40;101815.00;3531786;40;20062;-64
2023/07/10 03:08:28;;;;;;;9.23;6.10;;;;;;;19.32;80.30;101812.53;3531861;40;20078;-64
2023/07/10 03:11:04;;;;;;;8.20;6.20;;;;;;;19.34;80.43;101813.25;3531755;40;20372;-64
2023/07/10 03:13:30;;;;;;;9.00;6.05;;;;;;;19.25;80.19;101803.97;3529880;40;20070;-64
2023/07/10 03:16:06;;;;;;;9.60;6.55;;;;;;;19.27;80.08;101812.03;3531790;40;20110;-64
2023/07/10 03:18:32;;;;;;;8.32;6.65;;;;;;;19.27;80.02;101815.63;3531405;40;20360;-64
2023/07/10 03:20:58;;;;;;;8.13;6.60;;;;;;;19.25;81.05;101821.22;3532363;40;20139;-64
2023/07/10 03:23:24;;;;;;;10.40;6.80;;;;;;;19.27;80.79;101823.81;3527649;40;20110;-63
2023/07/10 03:25:50;;;;;;;9.57;6.65;;;;;;;19.26;80.05;101827.53;3531437;40;20056;-64
2023/07/10 03:28:16;;;;;;;7.68;6.15;;;;;;;19.14;80.36;101818.50;3529452;40;20062;-63
2023/07/10 03:30:42;;;;;;;8.07;6.45;;;;;;;19.20;79.93;101834.34;3528583;40;20062;-63
2023/07/10 03:33:08;;;;;;;9.25;6.53;;;;;;;19.17;79.70;101829.16;3532455;40;20323;-63
2023/07/10 03:35:34;;;;;;;9.77;6.65;;;;;;;19.17;79.75;101833.75;3527365;40;20337;-64
2023/07/10 03:37:59;;;;;;;9.80;6.05;;;;;;;19.13;78.97;101833.13;3528621;40;20046;-64
2023/07/10 03:40:25;;;;;;;8.68;6.60;;;;;;;19.11;80.23;101829.66;3530627;40;20063;-63
2023/07/10 03:42:51;;;;;;;9.60;6.90;;;;;;;19.10;79.31;101832.53;3529164;40;20069;-63
2023/07/10 03:45:16;;;;;;;7.68;6.07;;;;;;;19.07;79.15;101833.63;3527404;40;20269;-64
2023/07/10 03:47:42;;;;;;;8.55;6.10;;;;;;;19.05;79.53;101846.50;3529613;40;21852;-64
2023/07/10 03:50:09;;;;;;;6.93;5.82;;;;;;;19.07;79.47;101836.38;3531570;40;20058;-64
2023/07/10 03:52:35;;;;;;;7.85;6.13;;;;;;;19.04;79.19;101831.16;3522497;40;20424;-64
2023/07/10 03:55:01;;;;;;;9.25;6.43;;;;;;;19.02;79.93;101835.84;3532361;40;20105;-64
2023/07/10 03:57:27;;;;;;;8.80;6.20;;;;;;;18.90;79.45;101831.41;3526762;40;20527;-64
2023/07/10 03:59:53;;;;;;;7.75;6.35;;;;;;;18.93;78.83;101844.78;3529160;40;20078;-64
2023/07/10 04:02:18;;;;;;;9.48;6.20;;;;;;;18.93;79.06;101847.50;3528656;40;20405;-64
2023/07/10 04:04:44;;;;;;;8.50;6.10;;;;;;;18.90;79.51;101854.09;3530608;40;20114;-64
2023/07/10 04:07:10;;;;;;;10.63;6.85;;;;;;;18.90;79.10;101858.66;3528753;40;20054;-64
2023/07/10 04:09:35;;;;;;;7.90;6.90;;;;;;;18.90;79.63;101858.66;3533625;40;20393;-64
2023/07/10 04:12:02;;;;;;;8.75;7.35;;;;;;;18.86;79.71;101857.16;3532809;40;20054;-64
2023/07/10 04:14:28;;;;;;;11.77;7.90;;;;;;;18.82;79.72;101863.88;3529891;40;20078;-64
2023/07/10 04:16:53;;;;;;;11.10;7.82;;;;;;;18.81;80.70;101863.00;3530483;40;20057;-64
2023/07/10 04:19:20;;;;;;;10.35;8.20;;;;;;;18.83;80.95;101862.88;3532120;40;20061;-64
2023/07/10 04:21:45;;;;;;;9.32;8.15;;;;;;;18.69;80.05;101834.84;3533514;40;20050;-64
2023/07/10 04:24:12;;;;;;;10.57;8.20;;;;;;;18.85;80.98;101860.91;3523317;40;20740;-63
2023/07/10 04:26:38;;;;;;;9.82;7.70;;;;;;;18.88;80.39;101857.94;3532937;40;20054;-63
2023/07/10 04:29:06;;;;;;;9.50;8.02;;;;;;;18.86;80.44;101846.28;3530785;40;20129;-63
2023/07/10 04:31:34;;;;;;;10.73;8.52;;;;;;;18.92;80.49;101856.69;3530510;40;20066;-63
2023/07/10 04:33:59;;;;;;;11.73;9.10;;;;;;;18.92;81.08;101856.69;3533795;40;20105;-63
2023/07/10 04:36:26;;;;;;;11.00;8.93;;;;;;;18.89;81.02;101856.94;3533204;40;20078;-64
2023/07/10 04:38:52;;;;;;;11.55;9.45;;;;;;;18.47;81.53;101794.00;3536588;40;20057;-63
2023/07/10 04:41:22;;;;;;;12.90;8.73;;;;;;;18.88;81.20;101861.50;3532195;40;20073;-63
2023/07/10 04:43:48;;;;;;;10.27;8.40;;;;;;;18.89;80.33;101867.81;3534246;40;20104;-63
2023/07/10 04:46:17;;;;;;;10.75;8.85;;;;;;;18.88;80.64;101866.09;3528901;40;20058;-63
2023/07/10 04:48:44;;;;;;;11.13;8.52;;;;;;;18.90;81.55;101865.00;3534805;40;20100;-63
2023/07/10 04:51:13;;;;;;;12.35;8.27;;;;;;;18.95;81.15;101850.97;3533047;40;20076;-65
2023/07/10 04:53:39;;;;;;;10.52;8.10;;;;;;;18.98;80.09;101856.19;3533096;40;20062;-64
2023/07/10 04:56:09;;;;;;;10.30;8.52;;;;;;;18.98;80.16;101861.63;3532781;40;20054;-64
2023/07/10 04:58:57;;;;;;;11.57;8.50;;;;;;;18.96;80.33;101864.47;3534688;40;20272;-64
2023/07/10 05:01:32;;;;;;;10.95;8.15;;;;;;;18.95;80.16;101878.22;3532163;40;20500;-64
2023/07/10 05:03:59;;;;;;;12.05;8.93;;;;;;;18.88;80.07;101860.66;3531030;40;20460;-65
2023/07/10 05:06:26;;;;;;;11.57;8.27;;;;;;;18.91;80.12;101871.31;3531482;40;20075;-63
2023/07/10 05:08:55;;;;;;;12.77;9.07;;;;;;;18.79;80.58;101856.81;3531901;40;20160;-63
2023/07/10 05:11:24;;;;;;;11.10;8.82;;;;;;;18.97;79.83;101882.56;3530768;40;20054;-63
2023/07/10 05:13:50;;;;;;;10.98;8.23;;;;;;;19.01;80.08;101883.19;3528383;40;20594;-63
2023/07/10 05:16:16;;;;;;;12.15;8.82;;;;;;;19.03;80.47;101886.66;3531568;40;20065;-64
2023/07/10 05:18:42;;;;;;;10.80;8.30;;;;;;;19.08;80.24;101878.09;3530593;40;20069;-64
2023/07/10 05:21:07;;;;;;;12.70;8.48;;;;;;;19.09;78.99;101885.28;3531096;40;20065;-63
2023/07/10 05:23:35;;;;;;;10.63;7.82;;;;;;;19.14;78.95;101892.09;3532581;40;20058;-64
2023/07/10 05:26:12;;;;;;;10.25;7.55;;;;;;;19.20;78.80;101888.88;3530661;40;20062;-64
2023/07/10 05:28:39;;;;;;;10.65;8.10;;;;;;;19.18;78.41;101879.94;3526904;40;20092;-63
2023/07/10 05:31:08;;;;;;;8.52;7.60;;;;;;;19.32;78.55;101891.59;3530474;40;20062;-62
2023/07/10 05:33:36;;;;;;;8.48;7.22;;;;;;;19.37;77.28;101890.22;3532504;40;20077;-65
2023/07/10 05:36:06;;;;;;;11.57;6.85;;;;;;;18.42;77.64;101733.56;3533345;40;20088;-63
2023/07/10 05:38:34;;;;;;;10.68;6.65;;;;;;;19.44;76.95;101901.47;3534149;40;20051;-64
2023/07/10 05:41:01;;;;;;;9.95;6.53;;;;;;;19.41;76.61;101904.47;3531739;40;20349;-64
2023/07/10 05:43:32;;;;;;;7.78;6.43;;;;;;;19.39;77.20;101899.16;3536136;40;20389;-65
2023/07/10 05:45:59;;;;;;;10.55;6.53;;;;;;;19.41;76.89;101894.44;3530878;40;20133;-64
2023/07/10 05:48:25;;;;;;;9.98;6.13;;;;;;;19.45;76.71;101886.88;3532185;40;20402;-64
2023/07/10 05:50:53;;;;;;;10.98;6.18;;;;;;;19.51;76.80;101891.81;3529488;40;20072;-64
2023/07/10 05:53:20;;;;;;;8.77;6.38;;;;;;;19.41;76.46;101871.72;3525346;40;20173;-64
2023/07/10 05:55:49;;;;;;;9.60;6.30;;;;;;;19.49;76.29;101891.94;3535211;40;20262;-64
2023/07/10 05:58:16;;;;;;;10.27;5.93;;;;;;;19.43;76.03;101869.75;3532465;40;20054;-64
2023/07/10 06:00:43;;;;;;;7.70;5.28;;;;;;;19.61;76.02;101892.78;3537866;40;20791;-64
2023/07/10 06:03:09;;;;;;;8.07;5.20;;;;;;;19.74;76.18;101894.53;3533254;40;20257;-64
2023/07/10 06:05:36;;;;;;;7.32;5.30;;;;;;;19.79;75.37;101897.72;3530769;40;20383;-65
2023/07/10 06:08:01;;;;;;;8.13;5.07;;;;;;;19.83;74.79;101889.16;3531125;40;20073;-64
2023/07/10 06:10:28;;;;;;;10.25;5.03;;;;;;;19.90;74.62;101897.69;3530108;40;20129;-64
2023/07/10 06:12:53;;;;;;;8.23;4.45;;;;;;;19.93;73.62;101894.72;3533727;40;20090;-64
2023/07/10 06:15:19;;;;;;;7.88;4.20;;;;;;;19.99;73.57;101896.91;3532462;40;20061;-64
2023/07/10 06:17:44;;;;;;;7.65;6.20;;;;;;;20.08;72.91;101904.34;3529396;40;20065;-64
2023/07/10 06:20:11;;;;;;;8.02;4.97;;;;;;;20.17;71.54;101906.28;3528304;40;20318;-64
2023/07/10 06:22:36;;;;;;;6.18;3.70;;;;;;;20.26;70.90;101896.41;3529828;40;20062;-64
2023/07/10 06:25:02;;;;;;;5.82;3.53;;;;;;;20.39;69.78;101905.31;3529558;40;20286;-64
2023/07/10 06:27:28;;;;;;;5.22;3.90;;;;;;;20.51;69.26;101908.84;3532216;40;20050;-64
2023/07/10 06:29:53;;;;;;;5.85;3.83;;;;;;;20.66;69.03;101920.31;3535027;40;20361;-64
2023/07/10 06:32:20;;;;;;;7.65;3.78;;;;;;;20.77;68.34;101922.09;3530367;40;20066;-64
2023/07/10 06:34:45;;;;;;;6.32;3.75;;;;;;;20.87;68.20;101917.59;3528435;40;20057;-63
2023/07/10 06:37:11;;;;;;;5.45;3.55;;;;;;;20.92;66.77;101920.75;3534909;40;20301;-63
2023/07/10 06:39:36;;;;;;;6.30;3.90;;;;;;;21.01;67.39;101927.28;3531950;40;20093;-63
2023/07/10 06:42:03;;;;;;;5.07;3.53;;;;;;;21.07;66.64;101915.81;3530833;40;20425;-63
2023/07/10 06:44:28;;;;;;;6.68;3.08;;;;;;;21.20;64.91;101916.44;3532213;40;20336;-63
2023/07/10 06:46:54;;;;;;;5.85;3.40;;;;;;;21.26;64.27;101923.22;3528712;40;20062;-63
2023/07/10 06:49:19;;;;;;;6.70;3.65;;;;;;;21.36;64.22;101918.69;3527595;40;20054;-63
2023/07/10 06:51:45;;;;;;;7.82;3.58;;;;;;;21.54;63.92;101921.63;3531341;40;20057;-63
2023/07/10 06:54:11;;;;;;;6.70;3.20;;;;;;;21.68;62.57;101923.09;3529458;40;20310;-63
2023/07/10 06:56:36;;;;;;;5.65;3.00;;;;;;;21.79;61.33;101918.38;3530588;40;20501;-63
2023/07/10 06:59:02;;;;;;;6.53;2.70;;;;;;;21.94;60.73;101924.28;3528583;40;20061;-63
2023/07/10 07:01:28;;;;;;;6.28;2.97;;;;;;;22.05;58.89;101927.94;3534683;40;20414;-63
2023/07/10 07:03:53;;;;;;;6.68;2.53;;;;;;;22.18;58.99;101923.91;3533802;40;20061;-63
2023/07/10 07:06:19;;;;;;;6.15;2.60;;;;;;;22.41;58.00;101926.38;3531195;40;20051;-63
2023/07/10 07:08:51;;;;;;;9.18;2.92;;;;;;;22.51;57.64;101920.88;3530172;40;20060;-63
2023/07/10 07:11:17;;;;;;;6.68;2.47;;;;;;;22.58;56.85;101927.50;3532595;40;20054;-64
2023/07/10 07:13:43;;;;;;;9.82;2.60;;;;;;;22.63;55.80;101917.81;3530472;40;20205;-63
2023/07/10 07:16:09;;;;;;;6.45;1.75;;;;;;;22.74;56.36;101914.06;3528990;40;20404;-63
2023/07/10 07:18:35;;;;;;;6.07;2.30;;;;;;;22.97;56.51;101927.47;3529540;40;20073;-64
2023/07/10 07:21:01;;;;;;;6.13;2.55;;;;;;;23.02;56.65;101923.22;3528919;40;20078;-63
2023/07/10 07:23:28;;;;;;;5.03;2.30;;;;;;;23.00;55.13;101913.44;3521202;40;20059;-63
2023/07/10 07:25:55;;;;;;;6.60;3.03;;;;;;;23.20;55.51;101928.81;3529023;40;20149;-63
2023/07/10 07:28:21;;;;;;;7.22;2.60;;;;;;;23.31;55.51;101935.97;3527742;40;20067;-63
2023/07/10 07:30:47;;;;;;;6.15;2.67;;;;;;;23.40;54.64;101938.66;3530149;40;20069;-63
2023/07/10 07:33:19;;;;;;;6.40;3.25;;;;;;;23.42;53.65;101941.28;3532743;40;20420;-63
2023/07/10 07:35:47;;;;;;;7.33;3.30;;;;;;;23.47;54.40;101949.03;3528275;40;20050;-63
2023/07/10 07:38:14;;;;;;;5.38;3.13;;;;;;;23.52;54.50;101946.72;3531681;40;20269;-64
2023/07/10 07:40:39;;;;;;;7.75;3.05;;;;;;;23.59;55.17;101943.19;3529008;40;20050;-63
2023/07/10 07:43:05;;;;;;;5.95;2.92;;;;;;;23.66;53.50;101954.47;3524880;40;20060;-63
2023/07/10 07:45:31;;;;;;;7.50;3.50;;;;;;;23.68;53.58;101951.53;3531793;40;20281;-63
2023/07/10 07:47:56;;;;;;;6.82;3.58;;;;;;;23.72;54.13;101948.34;3534150;40;20074;-62
2023/07/10 07:50:22;;;;;;;5.30;3.03;;;;;;;23.86;53.33;101950.59;3529307;40;20320;-64
2023/07/10 07:52:48;;;;;;;7.35;3.10;;;;;;;23.97;52.68;101948.66;3527836;40;20305;-63
2023/07/10 07:55:13;;;;;;;6.70;3.08;;;;;;;24.05;52.91;101952.34;3530940;40;20058;-63
2023/07/10 07:57:39;;;;;;;5.50;3.35;;;;;;;24.19;52.97;101939.94;3534516;40;20061;-63
2023/07/10 08:00:08;;;;;;;5.43;2.88;;;;;;;24.34;52.03;101932.03;3531480;40;20101;-63
2023/07/10 08:02:34;;;;;;;7.07;2.40;;;;;;;24.47;50.76;101938.00;3531405;40;20050;-63
2023/07/10 08:05:00;;;;;;;6.47;2.53;;;;;;;24.54;49.87;101927.22;3527812;40;20070;-63
2023/07/10 08:07:26;;;;;;;4.05;2.28;;;;;;;24.57;49.99;101937.06;3530406;40;20057;-63
2023/07/10 08:09:52;;;;;;;6.90;2.70;;;;;;;24.69;49.63;101930.28;3530307;40;20069;-63
2023/07/10 08:12:17;;;;;;;5.72;2.63;;;;;;;24.73;48.58;101927.03;3532536;40;20058;-63
2023/07/10 08:14:43;;;;;;;6.70;2.92;;;;;;;24.82;48.63;101930.72;3526631;40;20073;-63
2023/07/10 08:17:09;;;;;;;7.18;2.60;;;;;;;24.98;48.82;101935.44;3536841;40;20420;-63
2023/07/10 08:19:35;;;;;;;8.30;2.67;;;;;;;25.13;48.34;101931.09;3531767;40;20695;-63
2023/07/10 08:22:00;;;;;;;8.15;2.50;;;;;;;25.31;47.46;101928.28;3533748;40;20070;-63
2023/07/10 08:24:26;;;;;;;5.70;2.35;;;;;;;25.43;47.88;101928.84;3531843;40;20062;-64
2023/07/10 08:26:52;;;;;;;6.03;2.00;;;;;;;25.40;46.36;101927.28;3528941;40;20339;-64
2023/07/10 08:29:30;;;;;;;4.85;2.38;;;;;;;25.51;46.61;101933.53;3530160;40;20108;-63
2023/07/10 08:31:59;;;;;;;4.47;2.22;;;;;;;25.53;47.28;101929.59;3531053;40;20699;-64
2023/07/10 08:34:28;;;;;;;6.13;2.30;;;;;;;25.44;46.94;101908.56;3529720;40;20140;-63
2023/07/10 08:36:55;;;;;;;6.88;2.47;;;;;;;25.61;47.11;101926.84;3534122;40;20128;-63
2023/07/10 08:39:23;;;;;;;6.00;2.70;;;;;;;25.73;46.53;101918.28;3531327;40;20066;-63
2023/07/10 08:42:01;;;;;;;5.72;2.38;;;;;;;25.89;44.60;101933.00;3527182;40;20378;-63
2023/07/10 08:44:36;;;;;;;3.95;1.90;;;;;;;25.75;44.51;101903.28;3532590;40;20058;-62
2023/07/10 08:47:24;;;;;;;6.22;2.25;;;;;;;26.14;44.23;101933.91;3530367;40;20059;-63
2023/07/10 08:50:22;;;;;;;5.95;2.35;;;;;;;26.25;44.96;101937.34;3530599;40;20051;-62
2023/07/10 08:53:11;;;;;;;5.80;1.98;;;;;;;26.39;44.73;101928.41;3528151;40;20057;-63
2023/07/10 08:56:09;;;;;;;4.65;2.03;;;;;;;26.55;43.49;101917.41;3531278;40;20077;-62
2023/07/10 08:58:38;;;;;;;5.25;1.95;;;;;;;26.75;44.22;101931.69;3528798;40;20070;-62
2023/07/10 09:01:30;;;;;;;4.50;2.08;;;;;;;26.87;43.79;101932.19;3531709;40;20054;-63
2023/07/10 09:03:59;;;;;;;6.38;2.30;;;;;;;26.90;42.75;101911.69;3531593;40;20473;-63
2023/07/10 09:06:39;;;;;;;6.68;2.47;;;;;;;27.08;43.70;101934.38;3533588;40;20059;-63
2023/07/10 09:09:29;;;;;;;6.65;2.28;;;;;;;27.08;41.25;101938.03;3533027;40;20058;-63
2023/07/10 09:12:03;;;;;;;4.60;2.03;;;;;;;27.09;40.70;101939.75;3531772;40;20206;-62
2023/07/10 09:15:15;;;;;;;4.40;2.03;;;;;;;27.06;40.88;101904.22;3538094;40;20057;-63
2023/07/10 09:17:43;;;;;;;5.13;1.92;;;;;;;27.36;40.97;101934.00;3530209;40;20244;-63
2023/07/10 09:20:12;;;;;;;4.32;1.65;;;;;;;27.38;40.72;101935.53;3531585;40;20097;-63
2023/07/10 09:22:57;;;;;;;6.07;2.00;;;;;;;27.50;40.40;101933.25;3533891;40;20058;-63
2023/07/10 09:25:24;;;;;;;2.92;1.48;;;;;;;27.58;38.57;101933.19;3535584;40;20058;-63
2023/07/10 09:27:51;;;;;;;4.20;1.50;;;;;;;27.59;38.95;101937.69;3531301;40;20266;-63
2023/07/10 09:30:26;;;;;;;2.92;1.63;;;;;;;27.66;38.15;101941.47;3533655;40;20058;-63
2023/07/10 09:33:03;;;;;;;4.30;1.80;;;;;;;27.79;38.49;101937.28;3530731;40;20092;-63
2023/07/10 09:35:30;;;;;;;4.20;1.90;;;;;;;27.99;38.47;101936.63;3532039;40;20180;-63
2023/07/10 09:37:56;;;;;;;3.72;1.67;;;;;;;28.11;38.17;101933.47;3531951;40;20065;-63
2023/07/10 09:40:44;;;;;;;4.43;1.80;;;;;;;28.22;39.89;101935.78;3530365;40;20066;-63
2023/07/10 09:43:20;;;;;;;4.20;1.75;;;;;;;28.35;38.81;101938.78;3528608;40;20467;-63
2023/07/10 09:45:51;;;;;;;4.80;1.83;;;;;;;28.30;37.40;101938.50;3532069;40;20141;-63
2023/07/10 09:48:38;;;;;;;5.55;1.92;;;;;;;28.32;37.10;101935.53;3532863;40;20054;-62
2023/07/10 09:51:08;;;;;;;3.40;2.00;;;;;;;28.38;38.66;101932.88;3532276;40;20062;-63
2023/07/10 09:53:45;;;;;;;6.63;1.80;;;;;;;28.53;38.63;101937.66;3530696;40;20091;-63
2023/07/10 09:56:29;;;;;;;6.40;2.10;;;;;;;28.64;38.50;101937.19;3532688;40;20050;-64
2023/07/10 09:58:57;;;;;;;4.20;2.42;;;;;;;28.98;38.92;101944.13;3532644;40;20545;-63
2023/07/10 10:01:40;;;;;;;3.50;1.70;;;;;;;28.85;36.80;101948.41;3534003;40;20098;-63
2023/07/10 10:04:06;;;;;;;5.50;1.65;;;;;;;28.87;39.40;101929.72;3533801;40;20150;-63
2023/07/10 10:06:32;;;;;;;4.55;1.67;;;;;;;28.92;36.47;101931.91;3529849;40;20559;-63
2023/07/10 10:09:14;;;;;;;4.53;1.40;;;;;;;28.79;37.97;101909.56;3530970;40;20413;-63
2023/07/10 10:11:46;;;;;;;6.97;2.00;;;;;;;29.02;36.06;101932.53;3531617;40;20054;-62
2023/07/10 10:14:30;;;;;;;5.10;1.92;;;;;;;29.09;37.57;101927.94;3531215;40;20345;-63
2023/07/10 10:17:03;;;;;;;4.13;1.65;;;;;;;29.15;35.03;101926.34;3530337;40;20058;-63
2023/07/10 10:19:45;;;;;;;5.05;1.77;;;;;;;28.97;38.28;101929.44;3533601;40;20054;-63
2023/07/10 10:22:14;;;;;;;6.00;2.15;;;;;;;29.03;36.41;101933.38;3535528;40;20056;-63
2023/07/10 10:24:41;;;;;;;5.00;1.48;;;;;;;28.93;35.66;101900.41;3529960;40;20058;-63
2023/07/10 10:27:18;;;;;;;4.30;1.98;;;;;;;29.26;36.13;101928.59;3534612;40;20062;-63
2023/07/10 10:30:06;;;;;;;4.63;1.67;;;;;;;29.40;35.38;101913.00;3532609;40;20130;-63
2023/07/10 10:33:01;;;;;;;2.40;1.35;;;;;;;29.54;36.34;101925.16;3529767;40;20086;-63
2023/07/10 10:35:55;;;;;;;3.63;1.85;;;;;;;29.77;35.60;101923.13;3530676;40;20403;-63
2023/07/10 10:38:35;;;;;;;5.15;1.80;;;;;;;29.90;34.35;101925.19;3532221;40;20050;-62
2023/07/10 10:41:42;;;;;;;3.45;1.52;;;;;;;30.01;34.48;101921.06;3531554;40;20066;-63
2023/07/10 10:44:17;;;;;;;3.97;1.63;;;;;;;30.14;35.54;101923.97;3527886;40;20134;-63
2023/07/10 10:47:13;;;;;;;4.40;2.10;;;;;;;30.06;35.94;101918.53;3528246;40;20057;-63
2023/07/10 10:50:26;;;;;;;4.10;1.80;;;;;;;30.23;35.52;101922.81;3530725;40;20085;-62
2023/07/10 10:53:20;;;;;;;4.68;1.75;;;;;;;30.29;35.09;101923.94;3522208;40;20429;-63
2023/07/10 10:56:26;;;;;;;4.65;1.60;;;;;;;30.17;33.89;101920.78;3531432;40;20360;-63
2023/07/10 10:59:15;;;;;;;5.60;1.80;;;;;;;29.84;34.79;101921.31;3531257;40;20053;-63
2023/07/10 11:02:12;;;;;;;5.63;1.80;;;;;;;29.34;36.17;101936.84;3528525;40;21267;-63
2023/07/10 11:04:45;;;;;;;5.07;1.70;;;;;;;29.29;35.33;101935.69;3529170;40;20385;-62
2023/07/10 11:07:19;;;;;;;4.22;1.80;;;;;;;29.21;35.39;101963.47;3528175;40;20050;-63
2023/07/10 11:09:50;;;;;;;4.10;1.67;;;;;;;28.87;36.80;101946.31;3531010;40;20132;-63
2023/07/10 11:12:30;;;;;;;5.30;2.13;;;;;;;28.92;36.59;101938.31;3531293;40;20060;-62
2023/07/10 11:15:11;;;;;;;4.00;1.70;;;;;;;28.71;37.45;101935.41;3527351;40;20144;-63
2023/07/10 11:17:37;;;;;;;4.80;1.90;;;;;;;28.88;36.61;101936.09;3530166;40;20062;-62
2023/07/10 11:20:04;;;;;;;5.15;1.75;;;;;;;29.09;36.90;101927.09;3529423;40;20054;-62
2023/07/10 11:22:33;;;;;;;2.80;1.30;;;;;;;28.81;36.92;101930.47;3530348;40;20465;-63
2023/07/10 11:25:01;;;;;;;2.03;1.50;;;;;;;28.68;35.90;101921.94;3528368;40;20051;-63
2023/07/10 11:27:40;;;;;;;4.25;1.42;;;;;;;28.76;35.80;101921.84;3530556;40;20067;-62
2023/07/10 11:30:15;;;;;;;6.30;2.17;;;;;;;28.56;36.78;101915.13;3519524;40;20469;-62
2023/07/10 11:33:18;;;;;;;3.88;1.50;;;;;;;28.43;36.30;101908.34;3530165;40;20058;-63
2023/07/10 11:36:10;;;;;;;6.70;1.77;;;;;;;28.72;37.27;101917.75;3533228;40;20054;-62
2023/07/10 11:38:53;;;;;;;4.03;1.77;;;;;;;29.06;35.80;101910.84;3521142;40;20066;-62
2023/07/10 11:41:27;;;;;;;4.38;1.70;;;;;;;29.40;35.05;101879.78;3531095;40;20050;-62